METAR Data
IDs: Format: Raw Decoded Include TAF

Data at: 0634 UTC 28 Sep 2022

KVCT 280551Z AUTO 01004KT 10SM CLR 16/13 A3014 RMK AO2 SLP203 T01560133 10278 20150 403330150 52009